createdAt,value
2023-08-14T00:00:58.481Z,285.49
2023-08-14T00:01:57.477Z,284.75
2023-08-14T00:02:57.529Z,284.02
2023-08-14T00:03:57.558Z,285.24
2023-08-14T00:04:57.468Z,284.51
2023-08-14T00:05:58.366Z,285.00
2023-08-14T00:06:57.499Z,283.04
2023-08-14T00:07:57.382Z,285.49
2023-08-14T00:08:57.410Z,285.00
2023-08-14T00:09:57.340Z,285.00
2023-08-14T00:10:57.343Z,285.49
2023-08-14T00:11:58.321Z,284.51
2023-08-14T00:12:57.411Z,285.24
2023-08-14T00:13:57.394Z,283.04
2023-08-14T00:14:57.284Z,284.51
2023-08-14T00:15:57.435Z,283.77
2023-08-14T00:17:03.581Z,285.00
2023-08-14T00:17:57.351Z,284.51
2023-08-14T00:18:57.344Z,285.49
2023-08-14T00:19:57.245Z,284.02
2023-08-14T00:20:57.225Z,285.99
2023-08-14T00:21:57.253Z,284.26
2023-08-14T00:23:03.619Z,286.49
2023-08-14T00:23:57.176Z,285.49
2023-08-14T00:24:57.179Z,285.00
2023-08-14T00:25:57.185Z,285.99
2023-08-14T00:26:57.146Z,284.02
2023-08-14T00:27:57.143Z,285.99
2023-08-14T00:28:58.087Z,285.00
2023-08-14T00:29:57.081Z,286.49
2023-08-14T00:30:57.388Z,286.24
2023-08-14T00:31:57.997Z,285.00
2023-08-14T00:32:57.077Z,286.98
2023-08-14T00:33:57.054Z,285.49
2023-08-14T00:34:58.014Z,286.24
2023-08-14T00:35:57.102Z,287.23
2023-08-14T00:36:57.038Z,285.49
2023-08-14T00:37:56.977Z,285.99
2023-08-14T00:38:57.014Z,287.23
2023-08-14T00:39:57.951Z,285.74
2023-08-14T00:40:56.972Z,287.23
2023-08-14T00:41:56.982Z,286.49
2023-08-14T00:42:56.964Z,287.74
2023-08-14T00:43:56.948Z,286.98
2023-08-14T00:44:56.946Z,286.49
2023-08-14T00:45:57.852Z,286.24
2023-08-14T00:46:56.889Z,285.74
2023-08-14T00:47:56.908Z,286.49
2023-08-14T00:48:56.856Z,286.49
2023-08-14T00:49:57.633Z,286.98
2023-08-14T00:50:57.795Z,286.98
2023-08-14T00:51:56.942Z,286.98
2023-08-14T00:52:56.803Z,287.74
2023-08-14T00:53:56.767Z,286.73
2023-08-14T00:54:56.793Z,288.24
2023-08-14T00:55:56.749Z,287.23
2023-08-14T00:56:57.723Z,287.99
2023-08-14T00:57:57.057Z,288.49
2023-08-14T00:58:56.704Z,287.49
2023-08-14T00:59:56.727Z,287.23
2023-08-14T01:00:56.836Z,287.23
2023-08-14T01:01:56.717Z,289.51
2023-08-14T01:02:57.648Z,287.49
2023-08-14T01:03:56.696Z,287.74
2023-08-14T01:04:56.654Z,289.76
2023-08-14T01:05:56.682Z,289.00
2023-08-14T01:06:56.637Z,290.02
2023-08-14T01:07:57.633Z,287.49
2023-08-14T01:08:56.701Z,289.00
2023-08-14T01:09:56.584Z,289.51
2023-08-14T01:10:56.576Z,290.53
2023-08-14T01:11:56.620Z,290.02
2023-08-14T01:13:02.814Z,291.82
2023-08-14T01:13:56.574Z,289.25
2023-08-14T01:14:56.519Z,292.33
2023-08-14T01:15:56.533Z,289.25
2023-08-14T01:16:56.743Z,291.56
2023-08-14T01:17:56.491Z,291.04
2023-08-14T01:18:57.566Z,290.53
2023-08-14T01:19:56.476Z,292.33
2023-08-14T01:20:56.511Z,292.59
2023-08-14T01:21:56.462Z,292.08
2023-08-14T01:22:56.450Z,291.56
2023-08-14T01:23:56.590Z,292.08
2023-08-14T01:25:02.692Z,291.30
2023-08-14T01:25:56.430Z,292.59
2023-08-14T01:26:56.397Z,292.08
2023-08-14T01:27:56.430Z,292.59
2023-08-14T01:28:56.396Z,291.04
2023-08-14T01:29:57.412Z,293.11
2023-08-14T01:30:56.466Z,293.11
2023-08-14T01:31:56.337Z,292.85
2023-08-14T01:32:56.304Z,295.22
2023-08-14T01:33:56.321Z,295.22
2023-08-14T01:34:56.390Z,294.95
2023-08-14T01:35:57.198Z,296.01
2023-08-14T01:36:56.300Z,293.64
2023-08-14T01:37:56.254Z,296.81
2023-08-14T01:38:56.230Z,294.69
2023-08-14T01:39:56.220Z,296.01
2023-08-14T01:40:56.272Z,297.08
2023-08-14T01:41:57.213Z,297.62
2023-08-14T01:42:56.229Z,297.08
2023-08-14T01:43:56.164Z,296.28
2023-08-14T01:44:56.804Z,298.70
2023-08-14T01:45:56.263Z,297.89
2023-08-14T01:46:56.099Z,298.97
2023-08-14T01:47:57.140Z,301.16
2023-08-14T01:48:56.083Z,300.06
2023-08-14T01:49:56.175Z,301.98
2023-08-14T01:50:56.128Z,301.71
2023-08-14T01:51:56.069Z,301.98
2023-08-14T01:52:56.070Z,300.88
2023-08-14T01:53:57.006Z,302.82
2023-08-14T01:54:56.002Z,304.50
2023-08-14T01:55:56.043Z,301.43
2023-08-14T01:56:56.178Z,305.06
2023-08-14T01:57:56.007Z,303.93
2023-08-14T01:58:56.943Z,306.20
2023-08-14T01:59:55.986Z,305.06
2023-08-14T02:00:56.645Z,306.48
2023-08-14T02:01:56.004Z,306.20
2023-08-14T02:02:56.051Z,307.34
2023-08-14T02:03:56.000Z,307.34
2023-08-14T02:04:56.858Z,305.34
2023-08-14T02:05:55.875Z,307.91
2023-08-14T02:06:55.900Z,306.77
2023-08-14T02:07:55.916Z,310.53
2023-08-14T02:08:55.886Z,308.78
2023-08-14T02:09:55.831Z,310.23
2023-08-14T02:10:56.989Z,311.41
2023-08-14T02:11:55.755Z,310.53
2023-08-14T02:12:55.784Z,311.11
2023-08-14T02:13:55.768Z,310.82
2023-08-14T02:14:55.824Z,312.00
2023-08-14T02:15:55.822Z,312.59
2023-08-14T02:16:56.690Z,311.11
2023-08-14T02:17:55.888Z,313.48
2023-08-14T02:18:55.708Z,312.59
2023-08-14T02:19:55.688Z,314.08
2023-08-14T02:20:55.815Z,312.89
2023-08-14T02:21:56.596Z,312.29
2023-08-14T02:22:55.618Z,314.38
2023-08-14T02:23:55.650Z,312.59
2023-08-14T02:24:55.588Z,314.98
2023-08-14T02:25:55.646Z,313.18
2023-08-14T02:26:55.634Z,314.38
2023-08-14T02:27:56.532Z,314.08
2023-08-14T02:28:55.573Z,315.28
2023-08-14T02:29:55.569Z,316.19
2023-08-14T02:30:55.609Z,317.41
2023-08-14T02:31:55.585Z,316.80
2023-08-14T02:32:56.423Z,315.58
2023-08-14T02:33:55.575Z,315.58
2023-08-14T02:34:55.490Z,317.10
2023-08-14T02:35:55.462Z,316.49
2023-08-14T02:36:55.462Z,315.58
2023-08-14T02:37:56.441Z,317.41
2023-08-14T02:38:55.485Z,317.41
2023-08-14T02:39:55.401Z,316.49
2023-08-14T02:40:55.417Z,316.80
2023-08-14T02:41:55.475Z,316.80
2023-08-14T02:42:56.333Z,317.10
2023-08-14T02:43:55.488Z,319.26
2023-08-14T02:44:55.477Z,317.10
2023-08-14T02:45:55.406Z,317.41
2023-08-14T02:46:55.340Z,317.10
2023-08-14T02:47:56.407Z,316.19
2023-08-14T02:48:55.279Z,321.12
2023-08-14T02:49:55.309Z,320.19
2023-08-14T02:50:55.335Z,318.64
2023-08-14T02:51:55.273Z,318.64
2023-08-14T02:52:56.219Z,319.88
2023-08-14T02:53:55.227Z,318.33
2023-08-14T02:54:55.227Z,318.95
2023-08-14T02:55:55.261Z,319.88
2023-08-14T02:56:55.491Z,318.64
2023-08-14T02:57:55.150Z,319.88
2023-08-14T02:58:56.172Z,319.88
2023-08-14T02:59:55.198Z,319.88
2023-08-14T03:00:55.221Z,319.88
2023-08-14T03:01:55.163Z,318.95
2023-08-14T03:02:55.196Z,321.44
2023-08-14T03:03:56.068Z,319.26
2023-08-14T03:04:55.101Z,319.57
2023-08-14T03:05:55.090Z,320.50
2023-08-14T03:06:55.109Z,321.75
2023-08-14T03:07:55.088Z,319.26
2023-08-14T03:08:56.014Z,320.50
2023-08-14T03:09:55.052Z,320.81
2023-08-14T03:10:55.106Z,322.07
2023-08-14T03:11:55.056Z,322.38
2023-08-14T03:12:55.687Z,318.64
2023-08-14T03:13:55.011Z,321.75
2023-08-14T03:15:01.235Z,321.75
2023-08-14T03:15:54.982Z,322.70
2023-08-14T03:16:55.027Z,323.33
2023-08-14T03:17:55.136Z,324.29
2023-08-14T03:18:54.879Z,322.07
2023-08-14T03:19:54.963Z,319.88
2023-08-14T03:20:55.979Z,322.38
2023-08-14T03:21:54.938Z,321.75
2023-08-14T03:22:54.866Z,323.65
2023-08-14T03:23:54.834Z,322.70
2023-08-14T03:24:54.831Z,323.01
2023-08-14T03:25:54.826Z,321.12
2023-08-14T03:26:55.828Z,325.25
2023-08-14T03:27:54.805Z,323.01
2023-08-14T03:28:54.788Z,321.75
2023-08-14T03:29:54.815Z,324.61
2023-08-14T03:30:54.898Z,324.61
2023-08-14T03:31:54.794Z,321.75
2023-08-14T03:32:55.769Z,324.29
2023-08-14T03:33:54.775Z,322.70
2023-08-14T03:34:54.715Z,323.01
2023-08-14T03:35:54.828Z,323.33
2023-08-14T03:36:54.768Z,322.70
2023-08-14T03:37:55.687Z,323.01
2023-08-14T03:38:54.751Z,323.01
2023-08-14T03:39:54.730Z,323.65
2023-08-14T03:40:54.687Z,323.97
2023-08-14T03:41:54.679Z,322.38
2023-08-14T03:42:55.551Z,323.65
2023-08-14T03:43:54.727Z,324.61
2023-08-14T03:44:54.599Z,323.65
2023-08-14T03:45:54.576Z,324.92
2023-08-14T03:46:54.585Z,322.38
2023-08-14T03:47:55.607Z,324.29
2023-08-14T03:48:55.324Z,324.61
2023-08-14T03:49:54.525Z,324.29
2023-08-14T03:50:54.522Z,323.01
2023-08-14T03:51:54.559Z,321.75
2023-08-14T03:52:54.484Z,324.29
2023-08-14T03:53:55.474Z,323.01
2023-08-14T03:54:54.498Z,323.33
2023-08-14T03:55:54.563Z,324.92
2023-08-14T03:56:54.469Z,323.01
2023-08-14T03:57:54.463Z,323.01
2023-08-14T03:58:55.505Z,325.57
2023-08-14T03:59:54.383Z,324.29
2023-08-14T04:00:54.399Z,323.65
2023-08-14T04:01:54.408Z,323.33
2023-08-14T04:02:54.370Z,323.65
2023-08-14T04:03:54.432Z,324.92
2023-08-14T04:04:55.374Z,323.33
2023-08-14T04:05:54.317Z,322.07
2023-08-14T04:06:54.358Z,323.33
2023-08-14T04:07:54.319Z,322.70
2023-08-14T04:08:54.320Z,325.89
2023-08-14T04:09:55.203Z,324.29
2023-08-14T04:10:54.234Z,323.65
2023-08-14T04:11:54.233Z,323.01
2023-08-14T04:12:55.305Z,323.33
2023-08-14T04:13:54.271Z,324.29
2023-08-14T04:14:55.174Z,324.61
2023-08-14T04:15:54.240Z,324.92
2023-08-14T04:16:54.167Z,323.65
2023-08-14T04:17:54.217Z,322.38
2023-08-14T04:18:54.148Z,321.75
2023-08-14T04:19:55.146Z,324.29
2023-08-14T04:20:54.128Z,324.29
2023-08-14T04:21:54.169Z,325.57
2023-08-14T04:22:54.187Z,324.29
2023-08-14T04:23:54.196Z,324.92
2023-08-14T04:24:54.053Z,325.89
2023-08-14T04:25:55.098Z,326.86
2023-08-14T04:26:54.086Z,324.92
2023-08-14T04:27:54.059Z,325.89
2023-08-14T04:28:54.042Z,324.29
2023-08-14T04:29:54.105Z,324.92
2023-08-14T04:30:54.030Z,325.57
2023-08-14T04:31:55.138Z,325.57
2023-08-14T04:32:53.999Z,327.18
2023-08-14T04:33:54.090Z,326.21
2023-08-14T04:34:53.934Z,325.89
2023-08-14T04:35:53.968Z,325.57
2023-08-14T04:36:53.973Z,325.89
2023-08-14T04:37:54.854Z,327.51
2023-08-14T04:38:54.080Z,326.21
2023-08-14T04:39:53.886Z,327.51
2023-08-14T04:40:53.912Z,326.21
2023-08-14T04:41:53.853Z,326.54
2023-08-14T04:42:54.795Z,326.86
2023-08-14T04:43:53.967Z,328.16
2023-08-14T04:44:53.890Z,326.86
2023-08-14T04:45:53.953Z,326.86
2023-08-14T04:46:59.923Z,328.82
2023-08-14T04:47:57.407Z,328.82
2023-08-14T04:48:54.684Z,326.86
2023-08-14T04:49:53.881Z,328.82
2023-08-14T04:50:54.022Z,327.84
2023-08-14T04:51:53.740Z,326.86
2023-08-14T04:52:53.733Z,326.86
2023-08-14T04:53:54.669Z,327.84
2023-08-14T04:54:53.727Z,329.15
2023-08-14T04:55:53.765Z,330.14
2023-08-14T04:56:53.704Z,326.86
2023-08-14T04:57:53.655Z,329.15
2023-08-14T04:58:53.671Z,327.51
2023-08-14T04:59:54.662Z,328.82
2023-08-14T05:00:53.671Z,329.48
2023-08-14T05:01:53.745Z,328.82
2023-08-14T05:02:53.675Z,329.48
2023-08-14T05:03:53.650Z,329.48
2023-08-14T05:04:53.592Z,326.21
2023-08-14T05:05:54.483Z,326.54
2023-08-14T05:06:53.556Z,326.54
2023-08-14T05:07:53.550Z,326.86
2023-08-14T05:08:53.536Z,331.47
2023-08-14T05:09:53.526Z,327.51
2023-08-14T05:10:54.456Z,326.86
2023-08-14T05:11:53.528Z,329.48
2023-08-14T05:12:53.459Z,330.80
2023-08-14T05:13:53.511Z,327.51
2023-08-14T05:14:54.774Z,331.47
2023-08-14T05:16:03.387Z,329.81
2023-08-14T05:16:55.938Z,328.16
2023-08-14T05:17:53.467Z,327.51
2023-08-14T05:18:53.373Z,329.81
2023-08-14T05:19:53.402Z,330.80
2023-08-14T05:20:53.365Z,328.82
2023-08-14T05:21:53.415Z,331.80
2023-08-14T05:22:54.335Z,330.80
2023-08-14T05:23:53.330Z,329.81
2023-08-14T05:24:53.316Z,332.47
2023-08-14T05:25:53.314Z,330.47
2023-08-14T05:26:53.456Z,329.81
2023-08-14T05:27:53.316Z,329.81
2023-08-14T05:28:54.308Z,329.48
2023-08-14T05:29:54.937Z,331.47
2023-08-14T05:30:53.262Z,330.47
2023-08-14T05:31:53.261Z,329.48
2023-08-14T05:32:53.215Z,330.14
2023-08-14T05:33:59.489Z,332.80
2023-08-14T05:34:53.185Z,332.13
2023-08-14T05:35:53.194Z,330.80
2023-08-14T05:36:53.212Z,331.13
2023-08-14T05:37:53.181Z,331.13
2023-08-14T05:38:54.111Z,330.80
2023-08-14T05:39:53.142Z,332.80
2023-08-14T05:40:53.126Z,331.13
2023-08-14T05:41:53.103Z,333.48
2023-08-14T05:42:53.103Z,331.80
2023-08-14T05:43:53.136Z,331.47
2023-08-14T05:44:54.072Z,331.47
2023-08-14T05:45:53.147Z,331.47
2023-08-14T05:46:53.077Z,331.13
2023-08-14T05:47:53.065Z,331.80
2023-08-14T05:48:53.011Z,330.80
2023-08-14T05:50:01.218Z,333.14
2023-08-14T05:50:53.018Z,330.80
2023-08-14T05:51:52.975Z,330.80
2023-08-14T05:52:53.014Z,328.82
2023-08-14T05:53:53.005Z,330.14
2023-08-14T05:54:52.936Z,330.80
2023-08-14T05:55:53.851Z,330.80
2023-08-14T05:56:53.017Z,331.13
2023-08-14T05:57:53.028Z,331.47
2023-08-14T05:58:52.876Z,329.48
2023-08-14T05:59:52.866Z,327.18
2023-08-14T06:00:52.908Z,332.13
2023-08-14T06:01:57.235Z,330.80
2023-08-14T06:02:52.940Z,331.47
2023-08-14T06:03:52.990Z,329.48
2023-08-14T06:04:52.799Z,330.47
2023-08-14T06:05:53.418Z,330.47
2023-08-14T06:06:52.824Z,332.47
2023-08-14T06:07:53.800Z,331.47
2023-08-14T06:08:52.776Z,327.84
2023-08-14T06:09:52.798Z,329.48
2023-08-14T06:10:52.738Z,329.48
2023-08-14T06:11:52.752Z,327.51
2023-08-14T06:12:52.766Z,329.48
2023-08-14T06:13:53.664Z,329.48
2023-08-14T06:14:52.806Z,326.86
2023-08-14T06:15:52.762Z,325.89
2023-08-14T06:16:52.740Z,327.51
2023-08-14T06:17:52.665Z,326.86
2023-08-14T06:18:54.521Z,326.21
2023-08-14T06:19:53.549Z,328.16
2023-08-14T06:20:52.640Z,328.16
2023-08-14T06:21:52.607Z,328.16
2023-08-14T06:22:52.570Z,325.57
2023-08-14T06:23:53.103Z,325.57
2023-08-14T06:24:52.535Z,327.18
2023-08-14T06:25:53.440Z,325.57
2023-08-14T06:26:52.565Z,324.92
2023-08-14T06:27:52.549Z,323.65
2023-08-14T06:28:52.516Z,323.97
2023-08-14T06:29:52.468Z,326.86
2023-08-14T06:30:53.414Z,323.01
2023-08-14T06:31:52.451Z,324.92
2023-08-14T06:32:52.500Z,323.65
2023-08-14T06:33:55.109Z,321.44
2023-08-14T06:34:52.404Z,323.33
2023-08-14T06:35:53.409Z,322.70
2023-08-14T06:36:52.417Z,323.65
2023-08-14T06:37:52.404Z,322.70
2023-08-14T06:38:52.334Z,323.65
2023-08-14T06:39:52.420Z,322.38
2023-08-14T06:40:53.287Z,322.07
2023-08-14T06:41:52.380Z,321.75
2023-08-14T06:42:52.392Z,323.97
2023-08-14T06:43:52.254Z,317.72
2023-08-14T06:44:52.269Z,321.44
2023-08-14T06:45:53.206Z,321.12
2023-08-14T06:46:52.357Z,321.75
2023-08-14T06:47:52.272Z,321.12
2023-08-14T06:48:52.205Z,319.26
2023-08-14T06:49:52.238Z,319.88
2023-08-14T06:50:52.235Z,318.02
2023-08-14T06:51:53.142Z,316.80
2023-08-14T06:52:52.193Z,315.58
2023-08-14T06:53:54.805Z,316.19
2023-08-14T06:54:52.861Z,314.38
2023-08-14T06:55:52.152Z,314.08
2023-08-14T06:56:53.120Z,313.18
2023-08-14T06:57:52.191Z,314.08
2023-08-14T06:58:52.372Z,313.78
2023-08-14T06:59:52.154Z,313.78
2023-08-14T07:00:52.167Z,312.59
2023-08-14T07:01:53.075Z,312.59
2023-08-14T07:02:52.117Z,308.20
2023-08-14T07:03:52.206Z,309.65
2023-08-14T07:04:52.015Z,309.94
2023-08-14T07:05:52.011Z,309.07
2023-08-14T07:06:52.955Z,309.65
2023-08-14T07:07:52.003Z,308.78
2023-08-14T07:08:51.998Z,308.20
2023-08-14T07:09:51.944Z,305.06
2023-08-14T07:10:51.922Z,307.34
2023-08-14T07:11:52.897Z,303.93
2023-08-14T07:12:52.313Z,303.38
2023-08-14T07:13:51.994Z,304.50
2023-08-14T07:14:51.994Z,303.38
2023-08-14T07:15:51.888Z,302.54
2023-08-14T07:16:51.930Z,302.26
2023-08-14T07:17:52.897Z,301.43
2023-08-14T07:18:51.938Z,299.51
2023-08-14T07:19:51.897Z,300.61
2023-08-14T07:20:52.727Z,298.43
2023-08-14T07:21:51.835Z,297.62
2023-08-14T07:22:51.838Z,298.97
2023-08-14T07:23:53.469Z,298.43
2023-08-14T07:24:51.767Z,297.35
2023-08-14T07:25:51.834Z,297.08
2023-08-14T07:26:51.883Z,296.01
2023-08-14T07:27:51.852Z,296.01
2023-08-14T07:28:52.732Z,295.75
2023-08-14T07:29:51.682Z,296.01
2023-08-14T07:30:51.802Z,294.95
2023-08-14T07:31:51.792Z,293.64
2023-08-14T07:32:51.724Z,291.82
2023-08-14T07:33:51.646Z,291.82
2023-08-14T07:34:52.626Z,291.82
2023-08-14T07:35:51.618Z,291.04
2023-08-14T07:36:51.693Z,288.49
2023-08-14T07:37:51.643Z,287.49
2023-08-14T07:38:51.578Z,287.74
2023-08-14T07:39:52.497Z,286.49
2023-08-14T07:40:51.598Z,287.49
2023-08-14T07:41:51.565Z,288.75
2023-08-14T07:42:51.568Z,286.98
2023-08-14T07:43:51.483Z,284.02
2023-08-14T07:44:52.468Z,285.49
2023-08-14T07:45:51.589Z,284.75
2023-08-14T07:46:51.508Z,284.02
2023-08-14T07:47:51.588Z,284.02
2023-08-14T07:48:54.467Z,282.07
2023-08-14T07:49:52.441Z,282.07
2023-08-14T07:50:51.403Z,281.11
2023-08-14T07:51:51.431Z,279.44
2023-08-14T07:52:51.496Z,278.73
2023-08-14T07:53:51.451Z,278.96
2023-08-14T07:54:52.474Z,276.39
2023-08-14T07:55:51.384Z,277.55
2023-08-14T07:56:51.497Z,277.09
2023-08-14T07:57:51.369Z,276.16
2023-08-14T07:58:51.423Z,274.09
2023-08-14T07:59:57.716Z,275.69
2023-08-14T08:00:51.331Z,275.23
2023-08-14T08:01:51.368Z,273.63
2023-08-14T08:02:51.322Z,272.73
2023-08-14T08:03:51.268Z,272.73
2023-08-14T08:04:52.350Z,272.50
2023-08-14T08:05:51.272Z,272.27
2023-08-14T08:06:51.224Z,270.26
2023-08-14T08:07:52.651Z,270.49
2023-08-14T08:08:54.938Z,269.60
2023-08-14T08:09:51.221Z,268.06
2023-08-14T08:10:52.142Z,269.16
2023-08-14T08:11:51.208Z,267.85
2023-08-14T08:12:51.863Z,267.41
2023-08-14T08:13:52.188Z,263.77
2023-08-14T08:14:51.115Z,265.90
2023-08-14T08:15:51.169Z,263.14
2023-08-14T08:16:52.070Z,264.19
2023-08-14T08:17:51.119Z,262.72
2023-08-14T08:18:51.087Z,263.77
2023-08-14T08:19:51.192Z,261.88
2023-08-14T08:20:51.043Z,259.41
2023-08-14T08:21:51.029Z,260.23
2023-08-14T08:22:51.989Z,259.61
2023-08-14T08:23:51.042Z,259.00
2023-08-14T08:24:51.030Z,260.43
2023-08-14T08:25:51.061Z,259.00
2023-08-14T08:26:51.022Z,259.00
2023-08-14T08:27:50.959Z,258.39
2023-08-14T08:28:57.194Z,257.78
2023-08-14T08:29:50.980Z,254.60
2023-08-14T08:30:51.022Z,255.38
2023-08-14T08:31:51.091Z,254.79
2023-08-14T08:32:51.708Z,254.20
2023-08-14T08:33:50.941Z,254.01
2023-08-14T08:34:51.891Z,253.81
2023-08-14T08:35:50.937Z,251.68
2023-08-14T08:36:50.833Z,252.26
2023-08-14T08:37:50.810Z,251.87
2023-08-14T08:38:50.889Z,251.10
2023-08-14T08:39:53.977Z,250.91
2023-08-14T08:40:50.861Z,248.64
2023-08-14T08:41:50.844Z,248.07
2023-08-14T08:42:50.884Z,247.14
2023-08-14T08:43:50.793Z,248.07
2023-08-14T08:44:50.786Z,246.96
2023-08-14T08:45:57.095Z,246.04
2023-08-14T08:46:50.701Z,243.85
2023-08-14T08:47:50.787Z,243.67
2023-08-14T08:48:50.756Z,243.49
2023-08-14T08:49:50.718Z,242.06
2023-08-14T08:50:51.655Z,241.35
2023-08-14T08:51:50.716Z,239.77
2023-08-14T08:52:51.681Z,240.12
2023-08-14T08:53:50.711Z,240.12
2023-08-14T08:54:50.611Z,238.38
2023-08-14T08:55:50.633Z,237.35
2023-08-14T08:56:51.595Z,236.33
2023-08-14T08:57:50.628Z,235.65
2023-08-14T08:58:50.572Z,234.98
2023-08-14T08:59:50.553Z,234.14
2023-08-14T09:00:50.615Z,232.65
2023-08-14T09:01:58.190Z,232.00
2023-08-14T09:02:52.122Z,230.38
2023-08-14T09:03:50.637Z,230.38
2023-08-14T09:04:50.574Z,229.57
2023-08-14T09:05:50.500Z,228.77
2023-08-14T09:06:50.494Z,227.67
2023-08-14T09:07:51.435Z,227.51
2023-08-14T09:08:50.486Z,228.30
2023-08-14T09:09:50.446Z,226.73
2023-08-14T09:10:50.508Z,225.49
2023-08-14T09:11:50.472Z,226.26
2023-08-14T09:12:51.350Z,225.02
2023-08-14T09:13:50.348Z,224.72
2023-08-14T09:14:50.383Z,224.56
2023-08-14T09:15:50.374Z,224.41
2023-08-14T09:16:52.879Z,223.65
2023-08-14T09:17:50.410Z,223.80
2023-08-14T09:18:56.586Z,223.80
2023-08-14T09:19:50.389Z,223.80
2023-08-14T09:20:50.293Z,223.35
2023-08-14T09:21:50.319Z,222.44
2023-08-14T09:22:50.311Z,222.59
2023-08-14T09:23:50.274Z,221.39
2023-08-14T09:24:56.471Z,221.54
2023-08-14T09:25:50.237Z,221.99
2023-08-14T09:26:50.298Z,220.21
2023-08-14T09:27:50.217Z,219.62
2023-08-14T09:28:50.211Z,219.91
2023-08-14T09:29:56.546Z,218.89
2023-08-14T09:30:50.177Z,218.02
2023-08-14T09:31:50.165Z,217.59
2023-08-14T09:32:50.187Z,218.17
2023-08-14T09:33:50.155Z,217.02
2023-08-14T09:34:56.357Z,217.45
2023-08-14T09:35:51.073Z,217.02
2023-08-14T09:36:50.587Z,215.31
2023-08-14T09:37:50.112Z,216.45
2023-08-14T09:38:50.074Z,215.46
2023-08-14T09:39:50.034Z,216.16
2023-08-14T09:40:56.494Z,214.89
2023-08-14T09:41:50.157Z,213.78
2023-08-14T09:42:50.054Z,214.19
2023-08-14T09:43:49.997Z,213.78
2023-08-14T09:44:50.024Z,212.12
2023-08-14T09:45:56.257Z,213.36
2023-08-14T09:46:50.062Z,211.71
2023-08-14T09:47:51.626Z,211.04
2023-08-14T09:48:50.042Z,210.50
2023-08-14T09:49:49.937Z,210.36
2023-08-14T09:50:49.945Z,210.36
2023-08-14T09:51:50.900Z,209.43
2023-08-14T09:52:50.249Z,208.10
2023-08-14T09:53:49.873Z,208.10
2023-08-14T09:54:49.943Z,206.41
2023-08-14T09:55:49.851Z,207.19
2023-08-14T09:56:56.172Z,204.61
2023-08-14T09:57:49.817Z,205.51
2023-08-14T09:58:49.914Z,203.98
2023-08-14T09:59:49.823Z,203.60
2023-08-14T10:00:49.968Z,202.72
2023-08-14T10:01:56.775Z,202.72
2023-08-14T10:02:49.917Z,201.24
2023-08-14T10:03:49.772Z,201.36
2023-08-14T10:04:49.704Z,200.99
2023-08-14T10:05:49.732Z,198.93
2023-08-14T10:06:49.695Z,198.93
2023-08-14T10:07:55.928Z,198.93
2023-08-14T10:08:49.710Z,198.93
2023-08-14T10:09:49.727Z,197.02
2023-08-14T10:11:05.372Z,197.26
2023-08-14T10:11:51.162Z,197.14
2023-08-14T10:12:55.898Z,195.74
2023-08-14T10:13:49.645Z,195.04
2023-08-14T10:14:49.600Z,194.46
2023-08-14T10:15:49.642Z,195.97
2023-08-14T10:16:49.619Z,195.04
2023-08-14T10:17:55.913Z,194.69
2023-08-14T10:18:49.584Z,193.78
2023-08-14T10:19:49.568Z,193.55
2023-08-14T10:20:49.585Z,193.55
2023-08-14T10:21:49.499Z,192.76
2023-08-14T10:22:49.569Z,192.19
2023-08-14T10:23:55.796Z,191.52
2023-08-14T10:24:49.533Z,190.75
2023-08-14T10:25:49.525Z,190.20
2023-08-14T10:26:49.491Z,190.64
2023-08-14T10:27:49.463Z,189.98
2023-08-14T10:28:55.752Z,188.89
2023-08-14T10:29:49.442Z,189.65
2023-08-14T10:30:49.492Z,187.92
2023-08-14T10:31:49.418Z,187.60
2023-08-14T10:32:49.543Z,187.06
2023-08-14T10:33:49.394Z,186.74
2023-08-14T10:34:55.617Z,186.32
2023-08-14T10:35:49.440Z,185.59
2023-08-14T10:36:49.395Z,185.90
2023-08-14T10:38:00.039Z,185.90
2023-08-14T10:38:56.618Z,185.90
2023-08-14T10:39:57.067Z,184.88
2023-08-14T10:40:51.174Z,184.47
2023-08-14T10:41:49.308Z,183.66
2023-08-14T10:42:49.993Z,183.06
2023-08-14T10:43:49.284Z,182.46
2023-08-14T10:44:49.322Z,182.07
2023-08-14T10:45:55.593Z,181.47
2023-08-14T10:46:49.224Z,181.87
2023-08-14T10:47:49.345Z,179.91
2023-08-14T10:48:49.191Z,179.91
2023-08-14T10:49:49.184Z,179.34
2023-08-14T10:50:55.448Z,178.76
2023-08-14T10:51:49.215Z,177.81
2023-08-14T10:52:49.147Z,177.44
2023-08-14T10:53:49.118Z,177.44
2023-08-14T10:54:49.223Z,176.87
2023-08-14T10:55:49.123Z,176.87
2023-08-14T10:56:55.411Z,173.93
2023-08-14T10:57:49.101Z,175.03
2023-08-14T10:58:49.150Z,173.04
2023-08-14T10:59:49.070Z,172.32
2023-08-14T11:00:49.057Z,174.30
2023-08-14T11:01:55.402Z,171.79
2023-08-14T11:02:49.064Z,171.44
2023-08-14T11:03:49.011Z,171.79
2023-08-14T11:04:49.049Z,168.85
2023-08-14T11:05:49.063Z,169.36
2023-08-14T11:06:55.241Z,168.51
2023-08-14T11:07:48.977Z,167.67
2023-08-14T11:08:49.006Z,168.00
2023-08-14T11:09:49.018Z,166.67
2023-08-14T11:10:48.907Z,166.50
2023-08-14T11:11:48.972Z,165.68
2023-08-14T11:12:55.141Z,164.38
2023-08-14T11:13:48.953Z,165.35
2023-08-14T11:14:48.873Z,165.19
2023-08-14T11:15:48.934Z,165.02
2023-08-14T11:16:48.956Z,164.05
2023-08-14T11:17:48.961Z,163.41
2023-08-14T11:18:56.994Z,163.26
2023-08-14T11:19:48.842Z,163.10
2023-08-14T11:20:48.938Z,162.62
2023-08-14T11:21:49.601Z,161.99
2023-08-14T11:22:48.764Z,161.52
2023-08-14T11:23:55.063Z,161.37
2023-08-14T11:24:48.868Z,160.29
2023-08-14T11:25:48.835Z,159.07
2023-08-14T11:26:48.734Z,157.72
2023-08-14T11:27:48.763Z,156.54
2023-08-14T11:28:55.012Z,156.25
2023-08-14T11:29:53.548Z,155.52
2023-08-14T11:30:50.193Z,153.81
2023-08-14T11:31:49.855Z,152.27
2023-08-14T11:32:48.798Z,151.58
2023-08-14T11:33:48.671Z,150.22
2023-08-14T11:34:54.954Z,148.36
2023-08-14T11:35:48.655Z,147.06
2023-08-14T11:36:48.673Z,146.03
2023-08-14T11:37:48.654Z,145.27
2023-08-14T11:38:49.619Z,143.78
2023-08-14T11:39:54.846Z,142.55
2023-08-14T11:40:48.569Z,141.47
2023-08-14T11:41:48.568Z,140.87
2023-08-14T11:42:48.586Z,139.47
2023-08-14T11:43:48.529Z,139.24
2023-08-14T11:44:48.556Z,138.77
2023-08-14T11:45:54.869Z,138.20
2023-08-14T11:46:48.495Z,137.07
2023-08-14T11:47:49.002Z,136.73
2023-08-14T11:48:48.534Z,136.62
2023-08-14T11:49:48.502Z,135.85
2023-08-14T11:50:48.461Z,134.86
2023-08-14T11:51:54.777Z,134.86
2023-08-14T11:52:48.467Z,133.89
2023-08-14T11:53:48.526Z,133.89
2023-08-14T11:54:48.419Z,133.68
2023-08-14T11:55:48.424Z,132.83
2023-08-14T11:56:54.642Z,132.83
2023-08-14T11:57:48.400Z,132.51
2023-08-14T11:58:57.498Z,132.62
2023-08-14T11:59:49.857Z,132.94
2023-08-14T12:00:48.422Z,133.04
2023-08-14T12:01:54.612Z,133.15
2023-08-14T12:02:48.406Z,133.36
2023-08-14T12:03:48.433Z,133.15
2023-08-14T12:04:48.293Z,133.68
2023-08-14T12:05:48.321Z,133.79
2023-08-14T12:06:54.562Z,133.89
2023-08-14T12:07:48.278Z,134.00
2023-08-14T12:08:48.271Z,134.00
2023-08-14T12:09:48.268Z,133.79
2023-08-14T12:10:48.354Z,133.89
2023-08-14T12:11:48.310Z,133.89
2023-08-14T12:12:56.129Z,134.21
2023-08-14T12:13:48.238Z,133.57
2023-08-14T12:14:48.256Z,134.11
2023-08-14T12:15:48.246Z,133.47
2023-08-14T12:16:48.209Z,133.15
2023-08-14T12:17:48.354Z,133.04
2023-08-14T12:18:54.465Z,133.04
2023-08-14T12:19:48.165Z,132.41
2023-08-14T12:20:48.151Z,131.89
2023-08-14T12:21:48.181Z,131.06
2023-08-14T12:22:55.345Z,129.64
2023-08-14T12:23:55.923Z,128.75
2023-08-14T12:24:48.168Z,128.75
2023-08-14T12:25:48.092Z,128.06
2023-08-14T12:26:48.111Z,127.67
2023-08-14T12:27:48.040Z,126.13
2023-08-14T12:28:54.364Z,124.91